Austin, TX (78780)

4:03 PM CDT on March 27, 2015 (GMT -0500)
Stratford Hills | | Change Station
CLOSE
Current Station
Personal Weather Station
Location: Austin, TX
Elevation: 594 ft
Nearby Weather Stations

Elev 594 ft 30.29 °N, 97.79 °W | Updated 7 seconds ago

Clear
Clear
83.1 °F
Feels Like 80 °F
N
2.5
Wind Variable Wind from NW
Gusts 4.9 mph

Today
High -- | Low -- °F
--% Chance of Precip.
Yesterday
High -- | Low -- °F
Precip. -- in
7:26 AM 7:46 PM
First Quarter, 55% visible
Pressure 30.10 in
Visibility 10.0 miles
Clouds Clear
Heat Index 80 °F
Dew Point 31 °F
Humidity 15%
Rainfall 0.00 in
Snow Depth Not available.
UV 7 out of 12
Pollen 10.20 out of 12
Air Quality Not available.
Flu Activity Not available.
METAR KATT 272051Z AUTO VRB04KT 10SM CLR 27/01 A3012 RMK AO2 SLP193 T02720011 58024

More Conditions Fewer Conditions

Pressure 30.10 in
Visibility 10.0 miles
Clouds Clear
Heat Index 80 °F
Dew Point 31 °F
Humidity 15%
Rainfall 0.00 in
Snow Depth Not available.
UV 7 out of 12
Pollen 10.20 out of 12
Air Quality Not available.
Flu Activity Not available.
METAR KATT 272051Z AUTO VRB04KT 10SM CLR 27/01 A3012 RMK AO2 SLP193 T02720011 58024

More Conditions Fewer Conditions

10-Day Weather Forecast

Almanac

Astronomy

Mar. 27, 2015 Rise Set
Actual Time
Civil Twilight
Nautical Twilight
Astronomical Twilight
Moon
Length of Visible Light
Length of Day
Tomorrow will be .
, % of the Moon is Illuminated

Today's Extremes

State Highs State Lows

Community

WunderPhotos

Upload Photos

1,808,826 photos uploaded!

WunderBlogs® & News

Nearby

Air Quality

  Air Quality AQ Index Pollutant
Not available.

Snow Depth

Station Depth Elevation

Earthquake Activity

City Distance Mag. Time & Date
Minimum magnitude displayed is 2.5.

Coastal Water Temperatures

Place Temperature

Stations

Nearby Weather Stations

Station Location Temp. Windchill Dew Point Humidity Wind Precip. Elev Updated Type